Langley, Kentucky
Current Conditions -  °F | °C
As of 10:55 AM on Sunday 21 Dec 2014 (Local Time) from KPBX Reporting Station
Clear Clear  
Wind Chill: 34°   Ceiling: Unl
Heat Index: 34°   Visibility: 10mi
Dew Point: 29°   Wind: 3mph
Humidity: 79%   Direction: 110°ESE
Pressure: 30.26"   Gusts: NA
Location:  37.53°N, 82.79°W
Report Text: KPBX 211555Z AUTO 11003KT 10SM CLR 01/M02 A3026 RMK AO2 T00131019
Loading
Personal Weather Stations






























Interactive Weather Map New forecast layout! Learn more

10-Day Weather Forecast

Advertisements
Track Severe Weather on mobile